TimeEST,TemperatureF,Dew PointF,Humidity,Sea Level PressureIn,VisibilityMPH,Wind Direction,Wind SpeedMPH,Gust SpeedMPH,PrecipitationIn,Events,Conditions,WindDirDegrees,DateUTC
12:53 AM,37.0,19.0,48,30.00,10.0,North,5.8,-,N/A,,Overcast,350,2014-02-26 05:53:00
1:53 AM,34.0,19.0,54,29.99,10.0,North,5.8,-,N/A,,Overcast,360,2014-02-26 06:53:00
2:53 AM,34.0,19.0,54,29.98,10.0,NNE,4.6,-,N/A,,Overcast,30,2014-02-26 07:53:00
3:53 AM,34.0,19.0,54,29.97,10.0,North,8.1,-,N/A,,Overcast,360,2014-02-26 08:53:00
4:53 AM,35.1,19.0,52,29.99,10.0,North,9.2,-,N/A,,Overcast,350,2014-02-26 09:53:00
5:53 AM,34.0,19.0,54,30.03,10.0,North,11.5,-,N/A,,Overcast,10,2014-02-26 10:53:00
6:53 AM,32.0,19.9,61,30.06,10.0,NNE,11.5,-,N/A,,Overcast,20,2014-02-26 11:53:00
7:53 AM,30.9,19.0,61,30.06,10.0,NNE,10.4,-,N/A,,Overcast,20,2014-02-26 12:53:00
8:53 AM,30.9,19.0,61,30.07,10.0,North,12.7,-,N/A,,Mostly Cloudy,360,2014-02-26 13:53:00
9:53 AM,33.1,19.0,56,30.06,10.0,NNW,9.2,-,N/A,,Scattered Clouds,340,2014-02-26 14:53:00
10:53 AM,34.0,18.0,52,30.05,10.0,North,12.7,19.6,0.00,,Scattered Clouds,360,2014-02-26 15:53:00
11:53 AM,35.1,17.1,48,30.04,10.0,NNW,11.5,19.6,N/A,,Scattered Clouds,340,2014-02-26 16:53:00
12:53 PM,36.0,16.0,44,30.01,10.0,NNE,8.1,18.4,N/A,,Scattered Clouds,30,2014-02-26 17:53:00
1:53 PM,37.0,16.0,42,29.97,10.0,North,12.7,17.3,0.00,Rain,Light Rain,10,2014-02-26 18:53:00
2:53 PM,37.0,15.1,41,29.96,10.0,NNW,11.5,17.3,N/A,,Partly Cloudy,330,2014-02-26 19:53:00
3:53 PM,37.0,14.0,39,29.94,10.0,North,8.1,-,N/A,,Scattered Clouds,360,2014-02-26 20:53:00
4:53 PM,37.9,12.9,36,29.92,10.0,Variable,6.9,-,N/A,,Scattered Clouds,0,2014-02-26 21:53:00
5:53 PM,36.0,12.0,37,29.93,10.0,Calm,Calm,-,N/A,,Scattered Clouds,0,2014-02-26 22:53:00
6:53 PM,33.1,12.0,42,29.94,10.0,ENE,3.5,-,N/A,,Partly Cloudy,60,2014-02-26 23:53:00
7:53 PM,30.9,12.0,46,29.95,10.0,NNW,6.9,-,N/A,,Clear,340,2014-02-27 00:53:00
8:53 PM,30.0,9.0,41,29.94,10.0,NNW,4.6,-,N/A,,Clear,330,2014-02-27 01:53:00
9:53 PM,28.9,10.0,45,29.97,10.0,NW,4.6,-,N/A,,Clear,320,2014-02-27 02:53:00
10:53 PM,28.0,10.0,47,29.98,10.0,West,4.6,-,N/A,,Clear,260,2014-02-27 03:53:00
11:53 PM,25.0,9.0,51,29.96,10.0,WSW,5.8,-,N/A,,Clear,240,2014-02-27 04:53:00